Time;durP1;ratioP1;P1;durP2;ratioP2;P2;SDS_P1;SDS_P2;PMS_P1;PMS_P2;Temp;Humidity;BMP_temperature;BMP_pressure;BME280_temperature;BME280_humidity;BME280_pressure;Samples;Min_cycle;Max_cycle;Signal;HPM_P1;HPM_P2
2021/12/26 00:02:07;;;;;;;8.48;3.90;;;;;;;;;;5107226;28;19924;-65
2021/12/26 00:04:34;;;;;;;7.55;3.75;;;;;;;;;;5074272;28;20051;-65
2021/12/26 00:07:01;;;;;;;7.43;3.83;;;;;;;;;;5092059;28;20063;-65
2021/12/26 00:09:27;;;;;;;8.45;4.00;;;;;;;;;;5093817;28;20052;-65
2021/12/26 00:11:53;;;;;;;7.35;3.30;;;;;;;;;;5094670;28;20105;-65
2021/12/26 00:14:19;;;;;;;7.80;3.30;;;;;;;;;;5093867;28;20044;-65
2021/12/26 00:16:45;;;;;;;8.32;3.53;;;;;;;;;;5081127;28;20412;-65
2021/12/26 00:19:11;;;;;;;;;;;;;;;;;;5073380;28;20473;-65
2021/12/26 00:21:38;;;;;;;7.28;3.40;;;;;;;;;;5073994;28;19927;-65
2021/12/26 00:24:04;;;;;;;8.55;4.18;;;;;;;;;;5075161;28;20480;-65
2021/12/26 00:26:32;;;;;;;8.45;3.75;;;;;;;;;;5073806;28;20392;-65
2021/12/26 00:28:59;;;;;;;8.73;3.50;;;;;;;;;;5073738;28;20049;-65
2021/12/26 00:31:24;;;;;;;;;;;;;;;;;;5074206;28;20045;-65
2021/12/26 00:33:50;;;;;;;7.68;3.45;;;;;;;;;;5073651;28;20050;-67
2021/12/26 00:36:17;;;;;;;7.03;3.60;;;;;;;;;;5093868;28;20051;-65
2021/12/26 00:38:43;;;;;;;8.20;3.50;;;;;;;;;;5093811;28;20060;-65
2021/12/26 00:41:09;;;;;;;8.10;3.22;;;;;;;;;;5093906;28;20495;-65
2021/12/26 00:43:35;;;;;;;5.30;3.03;;;;;;;;;;5093728;28;20043;-65
2021/12/26 00:46:01;;;;;;;5.68;2.67;;;;;;;;;;5093811;28;20063;-65
2021/12/26 00:48:27;;;;;;;5.90;2.70;;;;;;;;;;5091940;28;20071;-65
2021/12/26 00:50:54;;;;;;;5.03;2.80;;;;;;;;;;5093800;28;20092;-65
2021/12/26 00:53:20;;;;;;;8.35;3.10;;;;;;;;;;5093578;28;20048;-65
2021/12/26 00:55:46;;;;;;;6.53;3.08;;;;;;;;;;5093651;28;20044;-65
2021/12/26 00:58:12;;;;;;;5.13;2.80;;;;;;;;;;5093454;28;20044;-65
2021/12/26 01:00:40;;;;;;;;;;;-5.20;99.90;;;;;;5093149;28;20173;-65
2021/12/26 01:03:08;;;;;;;7.05;2.70;;;;;;;;;;5093663;28;19927;-65
2021/12/26 01:05:36;;;;;;;4.82;2.70;;;;;;;;;;5093564;28;20089;-65
2021/12/26 01:08:04;;;;;;;5.22;2.83;;;;;;;;;;5093544;28;20048;-65
2021/12/26 01:10:35;;;;;;;5.15;2.35;;;;;;;;;;5093066;28;20515;-65
2021/12/26 01:13:14;;;;;;;7.05;2.40;;;;;;;;;;5091661;28;20122;-65
2021/12/26 01:15:40;;;;;;;3.45;2.35;;;;;;;;;;5093072;28;20495;-65
2021/12/26 01:18:06;;;;;;;4.95;2.05;;;;;;;;;;5092296;28;20055;-65
2021/12/26 01:23:06;;;;;;;7.07;2.67;;;;;;;;;;5087211;28;20044;-65
2021/12/26 01:25:32;;;;;;;4.00;2.35;;;;;;;;;;5078890;28;20040;-65
2021/12/26 01:27:58;;;;;;;3.92;2.20;;;;;;;;;;5073031;28;20507;-65
2021/12/26 01:30:24;;;;;;;3.28;1.80;;;;;;;;;;5073127;28;20442;-65
2021/12/26 01:32:50;;;;;;;2.95;1.92;;;;;;;;;;5073308;28;20055;-65
2021/12/26 01:35:16;;;;;;;4.78;2.05;;;;;;;;;;5072953;28;20128;-65
2021/12/26 01:37:42;;;;;;;3.03;1.95;;;;;;;;;;5074105;28;20044;-65
2021/12/26 01:40:08;;;;;;;6.50;1.88;;;;;;;;;;5073180;28;20125;-65
2021/12/26 01:42:35;;;;;;;4.55;2.10;;;;;;;;;;5072592;28;20131;-65
2021/12/26 01:45:01;;;;;;;2.90;2.13;;;;;;;;;;5072901;28;20036;-65
2021/12/26 01:47:27;;;;;;;3.47;2.05;;;;;;;;;;5072787;28;20049;-65
2021/12/26 01:49:53;;;;;;;4.50;1.90;;;;;;;;;;5073939;28;20052;-65
2021/12/26 01:52:19;;;;;;;6.10;1.95;;;;;;;;;;5072876;28;20084;-65
2021/12/26 01:54:48;;;;;;;3.55;2.10;;;;;;;;;;5086220;28;20055;-65
2021/12/26 01:57:15;;;;;;;5.22;2.05;;;;;;;;;;5092796;28;20044;-65
2021/12/26 01:59:42;;;;;;;3.67;2.00;;;;;;;;;;5092926;28;20126;-65
2021/12/26 02:02:09;;;;;;;3.45;1.80;;;;;;;;;;5088073;28;20083;-65
2021/12/26 02:04:38;;;;;;;5.47;2.13;;;;;;;;;;5072664;28;20048;-65
2021/12/26 02:07:05;;;;;;;6.35;2.38;;;;;;;;;;5072704;28;20047;-64
2021/12/26 02:09:31;;;;;;;3.42;2.30;;;;;;;;;;5072628;28;20048;-65
2021/12/26 02:11:58;;;;;;;2.47;1.90;;;;;;;;;;5072106;28;20561;-65
2021/12/26 02:14:24;;;;;;;;;;;;;;;;;;5078513;28;20044;-66
2021/12/26 02:16:50;;;;;;;3.30;1.95;;;;;;;;;;5092332;28;20095;-65
2021/12/26 02:19:16;;;;;;;4.10;2.03;;;;;;;;;;5072359;28;20484;-65
2021/12/26 02:24:22;;;;;;;5.20;2.50;;;;;;;;;;5072308;28;20088;-65
2021/12/26 02:29:32;;;;;;;7.25;2.30;;;;;;;;;;5092477;28;20168;-65
2021/12/26 02:31:59;;;;;;;2.88;2.10;;;;;;;;;;5092705;28;20126;-65
2021/12/26 02:34:25;;;;;;;3.78;2.13;;;;;;;;;;5095809;28;20048;-67
2021/12/26 02:36:51;;;;;;;3.75;2.28;;;;;;;;;;5096106;28;20052;-65
2021/12/26 02:39:17;;;;;;;3.33;2.45;;;;;;;;;;5092254;28;20060;-65
2021/12/26 02:41:43;;;;;;;4.53;2.40;;;;;;;;;;5075971;28;20117;-65
2021/12/26 02:44:09;;;;;;;;;;;-5.30;99.90;;;;;;5077501;28;20056;-65
2021/12/26 02:46:35;;;;;;;5.45;3.00;;;;;;;;;;5075709;28;20387;-65
2021/12/26 02:49:01;;;;;;;7.75;3.22;;;;;;;;;;5075825;28;20048;-65
2021/12/26 02:51:27;;;;;;;7.38;3.47;;;;;;;;;;5074619;28;20080;-65
2021/12/26 02:53:53;;;;;;;5.38;2.90;;;;;;;;;;5082927;28;20044;-65
2021/12/26 02:56:19;;;;;;;5.25;3.08;;;;;;;;;;5095877;28;20172;-67
2021/12/26 02:58:46;;;;;;;8.20;3.00;;;;;;;;;;5095817;28;20046;-65
2021/12/26 03:01:20;;;;;;;4.70;2.83;;;;;;;;;;5095771;28;20047;-65
2021/12/26 03:03:46;;;;;;;7.13;2.92;;;;;;;;;;5095918;28;20052;-65
2021/12/26 03:06:39;;;;;;;6.13;2.88;;;;;;;;;;5095163;28;20047;-65
2021/12/26 03:09:00;;;;;;;3.88;2.47;;;;;;;;;;5094813;28;20059;-65
2021/12/26 03:11:26;;;;;;;8.55;2.78;;;;;;;;;;5095632;28;20094;-65
2021/12/26 03:13:52;;;;;;;6.07;2.95;;;;;;;;;;5095541;28;20044;-65
2021/12/26 03:16:19;;;;;;;7.00;3.05;;;;;;;;;;5095372;28;20055;-65
2021/12/26 03:18:45;;;;;;;5.72;2.95;;;;;;;;;;5078284;28;20124;-66
2021/12/26 03:21:11;;;;;;;7.78;3.40;;;;;;;;;;5074893;28;20137;-65
2021/12/26 03:23:37;;;;;;;3.25;2.58;;;;;;;;;;5075190;28;20051;-65
2021/12/26 03:26:04;;;;;;;4.45;2.60;;;;;;;;;;5075250;28;20068;-64
2021/12/26 03:28:31;;;;;;;3.85;2.63;;;;;;;;;;5075106;28;20144;-65
2021/12/26 03:30:58;;;;;;;4.30;2.70;;;;;;;;;;5086567;28;20560;-65
2021/12/26 03:33:24;;;;;;;5.40;2.75;;;;;;;;;;5094891;28;20496;-65
2021/12/26 03:35:51;;;;;;;3.53;2.40;;;;;;;;;;5095082;28;20040;-65
2021/12/26 03:38:17;;;;;;;3.17;2.33;;;;;;;;;;5094756;28;20048;-65
2021/12/26 03:40:44;;;;;;;6.07;2.70;;;;;;;;;;5094973;28;20101;-65
2021/12/26 03:43:10;;;;;;;4.93;2.30;;;;;;;;;;5092030;28;20126;-65
2021/12/26 03:45:36;;;;;;;3.55;2.13;;;;;;;;;;5094021;28;20094;-65
2021/12/26 03:48:03;;;;;;;4.97;2.30;;;;;;;;;;5093599;28;20131;-65
2021/12/26 03:50:30;;;;;;;;;;;-5.10;99.90;;;;;;5095238;28;20054;-65
2021/12/26 03:53:01;;;;;;;4.35;1.88;;;;;;;;;;5094678;28;19945;-65
2021/12/26 03:55:28;;;;;;;4.63;2.13;;;;;;;;;;5086060;28;20045;-65
2021/12/26 03:57:54;;;;;;;4.45;2.20;;;;;;;;;;5074600;28;20048;-65
2021/12/26 04:00:22;;;;;;;3.67;2.10;;;;;;;;;;5091613;28;20051;-65
2021/12/26 04:02:48;;;;;;;3.78;2.20;;;;;;;;;;5094527;28;20044;-65
2021/12/26 04:05:14;;;;;;;;;;;-4.80;99.90;;;;;;5095054;28;20122;-65
2021/12/26 04:07:41;;;;;;;5.15;2.45;;;;;;;;;;5085396;28;19920;-66
2021/12/26 04:10:07;;;;;;;;;;;;;;;;;;5074670;28;20053;-65
2021/12/26 04:12:37;;;;;;;5.43;2.40;;;;;;;;;;5074134;28;19974;-65
2021/12/26 04:15:08;;;;;;;3.40;2.00;;;;;;;;;;5074121;28;20103;-65
2021/12/26 04:17:34;;;;;;;3.78;2.00;;;;;;;;;;5074062;28;20048;-65
2021/12/26 04:20:00;;;;;;;4.82;2.10;;;;;;;;;;5078244;28;20040;-65
2021/12/26 04:22:27;;;;;;;4.60;2.28;;;;;;;;;;5094034;28;20083;-67
2021/12/26 04:24:53;;;;;;;3.95;2.15;;;;;;;;;;5093235;28;20402;-65
2021/12/26 04:27:21;;;;;;;5.15;2.35;;;;;;;;;;5094174;28;20113;-65
2021/12/26 04:29:47;;;;;;;6.47;2.80;;;;;;;;;;5094074;28;20486;-65
2021/12/26 04:32:13;;;;;;;3.90;2.10;;;;;;;;;;5085291;28;20079;-65
2021/12/26 04:34:40;;;;;;;4.72;2.20;;;;;;;;;;5073376;28;20067;-67
2021/12/26 04:37:06;;;;;;;3.25;2.38;;;;;;;;;;5073737;28;20055;-65
2021/12/26 04:39:32;;;;;;;4.03;2.33;;;;;;;;;;5073869;28;20480;-65
2021/12/26 04:41:58;;;;;;;3.53;2.50;;;;;;;;;;5073692;28;20045;-65
2021/12/26 04:44:26;;;;;;;4.82;2.30;;;;;;;;;;5077399;28;20416;-66
2021/12/26 04:46:52;;;;;;;3.60;2.50;;;;;;;;;;5093791;28;20043;-65
2021/12/26 04:49:18;;;;;;;5.82;2.28;;;;;;;;;;5093650;28;20050;-65
2021/12/26 04:51:44;;;;;;;4.13;2.53;;;;;;;;;;5093805;28;20427;-65
2021/12/26 04:54:10;;;;;;;3.50;2.20;;;;;;;;;;5093713;28;20427;-65
2021/12/26 04:56:36;;;;;;;5.70;2.40;;;;;;;;;;5092521;28;20036;-65
2021/12/26 04:59:03;;;;;;;3.33;2.22;;;;;;;;;;5093658;28;20106;-65
2021/12/26 05:01:29;;;;;;;3.00;2.15;;;;;;;;;;5093837;28;20391;-65
2021/12/26 05:03:55;;;;;;;8.70;2.33;;;;;;;;;;5093084;28;20467;-65
2021/12/26 05:06:21;;;;;;;4.38;2.10;;;;;;;;;;5093550;28;20046;-65
2021/12/26 05:08:47;;;;;;;7.15;2.80;;;;;;;;;;5093480;28;20138;-66
2021/12/26 05:11:13;;;;;;;4.35;2.60;;;;;;;;;;5091740;28;20047;-65
2021/12/26 05:13:39;;;;;;;4.15;2.30;;;;;;;;;;5093541;28;20059;-65
2021/12/26 05:16:05;;;;;;;4.00;2.30;;;;;;;;;;5093331;28;20128;-65
2021/12/26 05:18:31;;;;;;;3.78;2.30;;;;;;;;;;5093139;28;20047;-65
2021/12/26 05:20:57;;;;;;;4.57;2.38;;;;;;;;;;5093451;28;20198;-65
2021/12/26 05:23:24;;;;;;;3.03;2.05;;;;;;;;;;5080785;28;20048;-65
2021/12/26 05:25:50;;;;;;;;;;;;;;;;;;5073509;28;20045;-65
2021/12/26 05:28:16;;;;;;;6.22;2.10;;;;;;;;;;5073121;28;19921;-65
2021/12/26 05:30:42;;;;;;;4.15;2.58;;;;;;;;;;5072984;28;20056;-66
2021/12/26 05:33:08;;;;;;;3.88;2.17;;;;;;;;;;5071870;28;20494;-65
2021/12/26 05:35:34;;;;;;;4.65;2.20;;;;;;;;;;5072895;28;20051;-65
2021/12/26 05:38:00;;;;;;;6.95;2.50;;;;;;;;;;5072737;28;20357;-65
2021/12/26 05:40:26;;;;;;;4.00;2.05;;;;;;;;;;5072962;28;20457;-66
2021/12/26 05:42:52;;;;;;;4.75;2.50;;;;;;;;;;5072985;28;20040;-66
2021/12/26 05:45:19;;;;;;;4.30;2.50;;;;;;;;;;5073970;28;20143;-65
2021/12/26 05:47:45;;;;;;;5.05;2.30;;;;;;;;;;5072626;28;20048;-65
2021/12/26 05:50:12;;;;;;;3.83;2.45;;;;;;;;;;5072915;28;20048;-65
2021/12/26 05:52:39;;;;;;;5.43;2.55;;;;;;;;;;5072772;28;20045;-66
2021/12/26 05:55:06;;;;;;;4.95;2.58;;;;;;;;;;5089081;28;20068;-65
2021/12/26 05:57:32;;;;;;;4.05;2.30;;;;;;;;;;5093012;28;20092;-65
2021/12/26 05:59:58;;;;;;;5.22;2.38;;;;;;;;;;5089385;28;20044;-65
2021/12/26 06:02:24;;;;;;;3.80;2.47;;;;;;;;;;5092710;28;20117;-66
2021/12/26 06:04:50;;;;;;;4.88;2.67;;;;;;;;;;5092937;28;20139;-65
2021/12/26 06:07:17;;;;;;;7.15;2.95;;;;;;;;;;5092911;28;20051;-65
2021/12/26 06:09:43;;;;;;;3.97;2.67;;;;;;;;;;5097125;28;20052;-65
2021/12/26 06:12:09;;;;;;;4.97;2.90;;;;;;;;;;5080675;28;20052;-65
2021/12/26 06:14:35;;;;;;;4.63;2.70;;;;;;;;;;5076289;28;20127;-65
2021/12/26 06:17:02;;;;;;;4.85;2.65;;;;;;;;;;5075811;28;20577;-65
2021/12/26 06:19:28;;;;;;;4.80;2.80;;;;;;;;;;5076636;28;20052;-65
2021/12/26 06:21:54;;;;;;;6.45;3.08;;;;;;;;;;5076406;28;20051;-65
2021/12/26 06:24:20;;;;;;;10.15;2.83;;;;;;;;;;5077284;28;20048;-65
2021/12/26 06:26:47;;;;;;;6.05;2.67;;;;;;;;;;5076223;28;20052;-65
2021/12/26 06:29:13;;;;;;;7.72;2.72;;;;;;;;;;5076190;28;20098;-65
2021/12/26 06:31:39;;;;;;;4.55;2.72;;;;;;;;;;5075894;28;20052;-65
2021/12/26 06:34:05;;;;;;;7.03;2.65;;;;;;;;;;5076249;28;20056;-65
2021/12/26 06:36:31;;;;;;;6.47;2.70;;;;;;;;;;5084991;28;20043;-65
2021/12/26 06:38:57;;;;;;;9.00;3.22;;;;;;;;;;5096254;28;20127;-65
2021/12/26 06:41:26;;;;;;;8.27;2.95;;;;;;;;;;5096648;28;20052;-65
2021/12/26 06:43:52;;;;;;;5.20;2.85;;;;;;;;;;5095962;28;20522;-65
2021/12/26 06:46:19;;;;;;;4.35;2.67;;;;;;;;;;5095952;28;20055;-65
2021/12/26 06:48:45;;;;;;;7.63;2.70;;;;;;;;;;5094314;28;20510;-65
2021/12/26 06:51:11;;;;;;;4.47;2.67;;;;;;;;;;5096096;28;20044;-65
2021/12/26 06:53:37;;;;;;;5.93;3.17;;;;;;;;;;5096027;28;20182;-65
2021/12/26 06:56:04;;;;;;;5.32;2.63;;;;;;;;;;5095993;28;20113;-66
2021/12/26 06:58:30;;;;;;;5.05;3.20;;;;;;;;;;5095879;28;20059;-66
2021/12/26 07:00:56;;;;;;;3.85;2.72;;;;;;;;;;5091631;28;20123;-65
2021/12/26 07:03:22;;;;;;;5.75;3.45;;;;;;;;;;5075651;28;20074;-65
2021/12/26 07:05:48;;;;;;;6.15;3.00;;;;;;;;;;5075666;28;20518;-65
2021/12/26 07:08:14;;;;;;;4.38;3.15;;;;;;;;;;5075615;28;20058;-65
2021/12/26 07:10:41;;;;;;;7.32;3.30;;;;;;;;;;5075404;28;20080;-66
2021/12/26 07:13:07;;;;;;;4.00;2.63;;;;;;;;;;5075322;28;20045;-66
2021/12/26 07:15:33;;;;;;;6.35;2.80;;;;;;;;;;5076217;28;20072;-66
2021/12/26 07:17:59;;;;;;;4.05;2.80;;;;;;;;;;5075288;28;20091;-66
2021/12/26 07:20:25;;;;;;;5.55;3.40;;;;;;;;;;5075057;28;20045;-66
2021/12/26 07:22:51;;;;;;;7.15;2.83;;;;;;;;;;5075198;28;20376;-66
2021/12/26 07:25:17;;;;;;;6.38;3.50;;;;;;;;;;5075263;28;20048;-66
2021/12/26 07:27:43;;;;;;;6.90;3.08;;;;;;;;;;5093615;28;20077;-65
2021/12/26 07:30:10;;;;;;;6.07;3.05;;;;;;;;;;5094925;28;20051;-65
2021/12/26 07:32:36;;;;;;;4.18;2.50;;;;;;;;;;5095210;28;20051;-65
2021/12/26 07:35:03;;;;;;;4.93;2.88;;;;;;;;;;5095192;28;20052;-65
2021/12/26 07:37:29;;;;;;;7.05;3.63;;;;;;;;;;5095178;28;20519;-65
2021/12/26 07:39:56;;;;;;;7.78;2.90;;;;;;;;;;5079070;28;20073;-65
2021/12/26 07:42:22;;;;;;;5.05;3.03;;;;;;;;;;5074860;28;20048;-65
2021/12/26 07:44:48;;;;;;;;;;;-5.10;99.90;;;;;;5074931;28;20103;-65
2021/12/26 07:47:14;;;;;;;6.80;3.17;;;;;;;;;;5107535;28;20372;-65
2021/12/26 07:49:41;;;;;;;4.75;2.95;;;;;;;;;;5074779;28;20052;-65
2021/12/26 07:52:10;;;;;;;4.47;2.40;;;;;;;;;;5087358;28;20105;-65
2021/12/26 07:54:36;;;;;;;5.65;2.83;;;;;;;;;;5094705;28;20055;-65
2021/12/26 07:57:02;;;;;;;5.85;3.03;;;;;;;;;;5094733;28;20453;-66
2021/12/26 07:59:28;;;;;;;6.93;3.30;;;;;;;;;;5094550;28;20079;-66
2021/12/26 08:01:54;;;;;;;5.28;3.00;;;;;;;;;;5094743;28;20069;-65
2021/12/26 08:04:20;;;;;;;5.97;3.28;;;;;;;;;;5085706;28;20519;-65
2021/12/26 08:06:46;;;;;;;6.15;3.10;;;;;;;;;;5074387;28;20041;-65
2021/12/26 08:09:12;;;;;;;6.50;3.10;;;;;;;;;;5074339;28;20040;-66
2021/12/26 08:11:38;;;;;;;5.75;3.10;;;;;;;;;;5074506;28;20101;-65
2021/12/26 08:14:04;;;;;;;5.57;3.42;;;;;;;;;;5074039;28;20052;-65
2021/12/26 08:16:30;;;;;;;5.15;3.22;;;;;;;;;;5080217;28;20043;-65
2021/12/26 08:18:57;;;;;;;5.63;3.28;;;;;;;;;;5093277;28;20044;-65
2021/12/26 08:21:23;;;;;;;4.85;3.35;;;;;;;;;;5094236;28;20052;-65
2021/12/26 08:23:49;;;;;;;6.07;3.22;;;;;;;;;;5094453;28;20044;-65
2021/12/26 08:26:15;;;;;;;4.63;3.13;;;;;;;;;;5094352;28;20044;-66
2021/12/26 08:28:41;;;;;;;6.53;3.50;;;;;;;;;;5082783;28;20044;-65
2021/12/26 08:31:09;;;;;;;5.00;3.55;;;;;;;;;;5088009;28;20128;-65
2021/12/26 08:33:35;;;;;;;6.82;3.92;;;;;;;;;;5091358;28;20048;-65
2021/12/26 08:36:02;;;;;;;7.28;4.20;;;;;;;;;;5092198;28;20097;-65
2021/12/26 08:38:28;;;;;;;8.10;4.18;;;;;;;;;;5089802;28;20480;-66
2021/12/26 08:40:56;;;;;;;5.55;4.30;;;;;;;;;;5091558;28;20069;-65
2021/12/26 08:43:23;;;;;;;6.72;4.00;;;;;;;;;;5090014;28;20076;-66
2021/12/26 08:45:49;;;;;;;6.05;4.32;;;;;;;;;;5092832;28;20401;-65
2021/12/26 08:48:15;;;;;;;6.63;4.13;;;;;;;;;;5092343;28;20787;-66
2021/12/26 08:50:42;;;;;;;6.97;4.00;;;;;;;;;;5091080;28;20048;-65
2021/12/26 08:53:08;;;;;;;7.32;3.90;;;;;;;;;;5091000;28;20364;-66
2021/12/26 08:55:34;;;;;;;6.05;4.13;;;;;;;;;;5088749;28;20142;-65
2021/12/26 08:58:01;;;;;;;7.28;3.80;;;;;;;;;;5091260;28;20036;-65
2021/12/26 09:00:29;;;;;;;5.57;3.78;;;;;;;;;;5091539;28;20048;-65
2021/12/26 09:02:55;;;;;;;6.65;3.50;;;;;;;;;;5091285;28;20181;-66
2021/12/26 09:05:21;;;;;;;10.13;3.65;;;;;;;;;;5091729;28;20076;-67
2021/12/26 09:07:47;;;;;;;5.60;3.80;;;;;;;;;;5091662;28;20044;-65
2021/12/26 09:10:14;;;;;;;5.30;3.33;;;;;;;;;;5091392;28;20491;-65
2021/12/26 09:12:40;;;;;;;8.50;4.22;;;;;;;;;;5091951;28;20047;-66
2021/12/26 09:15:08;;;;;;;6.63;3.58;;;;;;;;;;5091245;28;20044;-65
2021/12/26 09:17:34;;;;;;;3.72;3.03;;;;;;;;;;5073343;28;20493;-65
2021/12/26 09:20:00;;;;;;;6.15;3.58;;;;;;;;;;5073374;28;20071;-65
2021/12/26 09:22:26;;;;;;;6.22;3.72;;;;;;;;;;5073318;28;20083;-65
2021/12/26 09:24:52;;;;;;;4.57;3.25;;;;;;;;;;5073127;28;20083;-65
2021/12/26 09:27:19;;;;;;;7.40;4.43;;;;;;;;;;5073335;28;20056;-65
2021/12/26 09:29:46;;;;;;;8.52;5.05;;;;;;;;;;5073107;28;20431;-65
2021/12/26 09:32:13;;;;;;;7.00;4.65;;;;;;;;;;5073306;28;20044;-65
2021/12/26 09:34:39;;;;;;;11.52;4.25;;;;;;;;;;5084174;28;20056;-65
2021/12/26 09:37:06;;;;;;;6.18;3.58;;;;;;;;;;5090511;28;20052;-65
2021/12/26 09:39:33;;;;;;;5.68;3.00;;;;;;;;;;5092305;28;20092;-65
2021/12/26 09:41:59;;;;;;;5.03;2.78;;;;;;;;;;5092650;28;20559;-65
2021/12/26 09:44:25;;;;;;;6.22;3.05;;;;;;;;;;5093813;28;20062;-65
2021/12/26 09:46:52;;;;;;;6.40;3.88;;;;;;;;;;5097152;28;20428;-65
2021/12/26 09:49:19;;;;;;;6.63;3.83;;;;;;;;;;5079754;28;20040;-65
2021/12/26 09:51:45;;;;;;;8.35;4.07;;;;;;;;;;5076779;28;20048;-65
2021/12/26 09:54:11;;;;;;;7.10;3.60;;;;;;;;;;5076971;28;20044;-65
2021/12/26 09:56:38;;;;;;;6.45;3.75;;;;;;;;;;5076980;28;20084;-65
2021/12/26 09:59:13;;;;;;;7.13;4.13;;;;;;;;;;5076930;28;20048;-65
2021/12/26 10:01:41;;;;;;;5.55;3.25;;;;;;;;;;5092502;28;20048;-65
2021/12/26 10:04:19;;;;;;;6.95;3.45;;;;;;;;;;5097185;28;20050;-65
2021/12/26 10:06:47;;;;;;;6.22;3.60;;;;;;;;;;5097061;28;20044;-65
2021/12/26 10:09:13;;;;;;;6.70;4.78;;;;;;;;;;5096760;28;20055;-66
2021/12/26 10:11:44;;;;;;;6.13;3.50;;;;;;;;;;5097082;28;20066;-65
2021/12/26 10:14:17;;;;;;;5.28;3.53;;;;;;;;;;5095166;28;20048;-65
2021/12/26 10:16:45;;;;;;;4.93;3.65;;;;;;;;;;5096878;28;20036;-66
2021/12/26 10:19:11;;;;;;;9.73;3.97;;;;;;;;;;5096827;28;20040;-65
2021/12/26 10:21:37;;;;;;;5.25;3.67;;;;;;;;;;5096014;28;20040;-65
2021/12/26 10:24:05;;;;;;;6.38;4.07;;;;;;;;;;5095975;28;20084;-65
2021/12/26 10:26:33;;;;;;;5.25;3.53;;;;;;;;;;5092865;28;20480;-65
2021/12/26 10:29:13;;;;;;;6.65;3.53;;;;;;;;;;5096955;28;20056;-65
2021/12/26 10:31:44;;;;;;;5.68;3.78;;;;;;;;;;5095420;28;20055;-65
2021/12/26 10:34:19;;;;;;;7.18;4.00;;;;;;;;;;5095953;28;20044;-66
2021/12/26 10:36:46;;;;;;;5.20;3.40;;;;;;;;;;5096024;28;20036;-66
2021/12/26 10:39:17;;;;;;;5.60;3.75;;;;;;;;;;5093967;28;20507;-66
2021/12/26 10:41:45;;;;;;;6.45;4.10;;;;;;;;;;5090748;28;20127;-67
2021/12/26 10:44:20;;;;;;;7.00;4.07;;;;;;;;;;5095970;28;20048;-66
2021/12/26 10:46:48;;;;;;;5.80;3.95;;;;;;;;;;5096067;28;20072;-66
2021/12/26 10:49:28;;;;;;;7.32;4.10;;;;;;;;;;5095509;28;20043;-66
2021/12/26 10:51:54;;;;;;;8.65;4.68;;;;;;;;;;5095801;28;20044;-66
2021/12/26 10:54:25;;;;;;;6.40;3.80;;;;;;;;;;5090794;28;20106;-66
2021/12/26 10:57:05;;;;;;;7.40;3.78;;;;;;;;;;5075430;28;20048;-66
2021/12/26 10:59:31;;;;;;;5.20;3.78;;;;;;;;;;5074949;28;20056;-68
2021/12/26 11:01:57;;;;;;;6.10;4.20;;;;;;;;;;5075162;28;20442;-66
2021/12/26 11:04:24;;;;;;;8.80;4.60;;;;;;;;;;5075656;28;20189;-66
2021/12/26 11:07:00;;;;;;;8.85;4.15;;;;;;;;;;5094215;28;20040;-66
2021/12/26 11:09:26;;;;;;;7.28;5.00;;;;;;;;;;5094353;28;20044;-66
2021/12/26 11:12:04;;;;;;;7.97;4.47;;;;;;;;;;5095114;28;20044;-67
2021/12/26 11:14:30;;;;;;;9.10;4.70;;;;;;;;;;5095490;28;20068;-66
2021/12/26 11:16:57;;;;;;;7.53;4.47;;;;;;;;;;5095692;28;20043;-66
2021/12/26 11:19:41;;;;;;;7.85;4.38;;;;;;;;;;5094691;28;20052;-66
2021/12/26 11:22:07;;;;;;;6.20;3.90;;;;;;;;;;5095405;28;20048;-66
2021/12/26 11:24:34;;;;;;;8.02;5.15;;;;;;;;;;5095794;28;20044;-66
2021/12/26 11:27:02;;;;;;;;;;;;;;;;;;5095913;28;20051;-66
2021/12/26 11:29:28;;;;;;;8.40;4.78;;;;;;;;;;5095614;28;20330;-66
2021/12/26 11:31:55;;;;;;;7.38;4.28;;;;;;;;;;5095492;28;20047;-66
2021/12/26 11:34:21;;;;;;;10.65;4.95;;;;;;;;;;5095481;28;20047;-66
2021/12/26 11:36:50;;;;;;;7.07;4.43;;;;;;;;;;5093982;28;20036;-66
2021/12/26 11:39:16;;;;;;;6.47;4.82;;;;;;;;;;5094996;28;20060;-66
2021/12/26 11:41:58;;;;;;;8.13;4.80;;;;;;;;;;5094131;28;20051;-66
2021/12/26 11:44:24;;;;;;;7.25;4.82;;;;;;;;;;5095337;28;20093;-66
2021/12/26 11:46:52;;;;;;;8.63;5.35;;;;;;;;;;5095206;28;20051;-66
2021/12/26 11:49:26;;;;;;;7.45;5.30;;;;;;;;;;5094027;28;20122;-66
2021/12/26 11:52:04;;;;;;;7.65;4.40;;;;;;;;;;5094867;28;20079;-66
2021/12/26 11:55:04;;;;;;;8.40;4.32;;;-2.00;99.90;;;;;;5095081;28;20107;-65
2021/12/26 11:58:07;;;;;;;7.07;4.50;;;-1.70;99.90;;;;;;5095089;28;20130;-65
2021/12/26 12:00:36;;;;;;;8.60;5.07;;;;;;;;;;5088068;28;20102;-65
2021/12/26 12:03:04;;;;;;;7.03;4.85;;;;;;;;;;5094865;28;20047;-65
2021/12/26 12:05:41;;;;;;;10.23;4.85;;;;;;;;;;5093746;28;20053;-65
2021/12/26 12:08:08;;;;;;;6.63;4.38;;;;;;;;;;5094980;28;20058;-65
2021/12/26 12:10:34;;;;;;;11.02;4.43;;;;;;;;;;5094400;28;20484;-65
2021/12/26 12:13:00;;;;;;;6.80;3.97;;;;;;;;;;5090326;28;20114;-65
2021/12/26 12:15:40;;;;;;;8.02;4.82;;;;;;;;;;5093052;28;20044;-65
2021/12/26 12:18:09;;;;;;;6.20;3.83;;;;;;;;;;5094736;28;20063;-65
2021/12/26 12:20:35;;;;;;;9.07;4.05;;;;;;;;;;5094308;28;20081;-65
2021/12/26 12:23:04;;;;;;;13.73;5.10;;;;;;;;;;5093860;28;20051;-66
2021/12/26 12:25:33;;;;;;;6.25;4.43;;;;;;;;;;5094493;28;20090;-65
2021/12/26 12:28:13;;;;;;;6.28;4.35;;;;;;;;;;5094462;28;20044;-66
2021/12/26 12:30:41;;;;;;;7.90;4.20;;;;;;;;;;5094590;28;20403;-65
2021/12/26 12:33:30;;;;;;;7.35;4.45;;;;;;;;;;5094311;28;20388;-65
2021/12/26 12:35:56;;;;;;;8.00;4.65;;;;;;;;;;5094276;28;20036;-65
2021/12/26 12:38:27;;;;;;;7.47;3.95;;;;;;;;;;5094263;28;20083;-65
2021/12/26 12:40:53;;;;;;;6.60;4.30;;;;;;;;;;5094505;28;20056;-65
2021/12/26 12:43:20;;;;;;;;;;;-1.20;99.90;;;;;;5094737;28;20103;-65
2021/12/26 12:45:56;;;;;;;6.23;4.07;;;;;;;;;;5094114;28;19920;-66
2021/12/26 12:48:33;;;;;;;6.05;4.05;;;;;;;;;;5092917;28;20084;-65
2021/12/26 12:51:15;;;;;;;5.78;4.03;;;;;;;;;;5093979;28;20058;-65
2021/12/26 12:53:45;;;;;;;7.07;4.35;;;;;;;;;;5094020;28;20052;-65
2021/12/26 12:56:40;;;;;;;10.23;4.63;;;0.80;99.90;;;;;;5093814;28;20044;-65
2021/12/26 12:59:12;;;;;;;6.78;4.43;;;;;;;;;;5093948;28;20048;-65
2021/12/26 13:01:44;;;;;;;6.65;4.30;;;1.00;99.90;;;;;;5093939;28;20127;-65
2021/12/26 13:04:11;;;;;;;7.95;4.78;;;;;;;;;;5093645;28;20051;-65
2021/12/26 13:06:47;;;;;;;7.68;4.35;;;;;;;;;;5093537;28;20344;-65
2021/12/26 13:09:13;;;;;;;6.97;4.22;;;;;;;;;;5094035;28;20134;-65
2021/12/26 13:11:39;;;;;;;;;;;1.80;99.90;;;;;;5094114;28;20056;-65
2021/12/26 13:14:05;;;;;;;7.40;4.28;;;;;;;;;;5093504;28;19973;-65
2021/12/26 13:16:31;;;;;;;6.22;4.10;;;;;;;;;;5092979;28;20040;-65
2021/12/26 13:19:07;;;;;;;6.68;4.22;;;;;;;;;;5093057;28;20043;-63
2021/12/26 13:21:33;;;;;;;6.70;4.53;;;;;;;;;;5093829;28;20044;-62
2021/12/26 13:24:00;;;;;;;7.50;4.30;;;;;;;;;;5092069;28;20051;-62
2021/12/26 13:26:26;;;;;;;9.32;3.97;;;;;;;;;;5093550;28;20094;-62
2021/12/26 13:28:52;;;;;;;7.75;3.92;;;;;;;;;;5093442;28;20044;-63
2021/12/26 13:31:22;;;;;;;8.98;4.40;;;;;;;;;;5093199;28;20098;-62
2021/12/26 13:33:56;;;;;;;7.82;4.72;;;1.50;99.90;;;;;;5093500;28;20052;-62
2021/12/26 13:36:25;;;;;;;6.57;4.28;;;;;;;;;;5093335;28;20092;-62
2021/12/26 13:38:51;;;;;;;7.78;3.92;;;;;;;;;;5093319;28;20048;-62
2021/12/26 13:41:19;;;;;;;8.30;4.90;;;;;;;;;;5093428;28;20186;-62
2021/12/26 13:43:45;;;;;;;7.85;5.15;;;;;;;;;;5093327;28;20096;-62
2021/12/26 13:46:14;;;;;;;;;;;-0.40;99.90;;;;;;5093509;28;20045;-62
2021/12/26 13:48:42;;;;;;;7.88;4.85;;;;;;;;;;5093307;28;19920;-62
2021/12/26 13:51:27;;;;;;;5.57;3.63;;;-0.80;99.90;;;;;;5092177;28;20044;-62
2021/12/26 13:54:07;;;;;;;8.07;4.72;;;;;;;;;;5093239;28;20046;-62
2021/12/26 13:56:49;;;;;;;5.47;3.45;;;;;;;;;;5093496;28;20136;-63
2021/12/26 13:59:32;;;;;;;7.43;4.90;;;;;;;;;;5093178;28;20048;-63
2021/12/26 14:02:03;;;;;;;8.75;4.75;;;;;;;;;;5092978;28;20055;-63
2021/12/26 14:04:29;;;;;;;7.47;4.72;;;;;;;;;;5093211;28;20055;-62
2021/12/26 14:06:55;;;;;;;8.05;4.57;;;;;;;;;;5092818;28;20499;-63
2021/12/26 14:09:22;;;;;;;6.75;4.40;;;;;;;;;;5093343;28;20044;-62
2021/12/26 14:11:48;;;;;;;7.43;4.03;;;;;;;;;;5093177;28;20084;-63
2021/12/26 14:14:20;;;;;;;5.50;4.18;;;;;;;;;;5093075;28;20131;-63
2021/12/26 14:16:47;;;;;;;6.75;4.30;;;;;;;;;;5092986;28;20048;-63
2021/12/26 14:19:13;;;;;;;8.88;4.50;;;;;;;;;;5093078;28;20161;-63
2021/12/26 14:21:41;;;;;;;6.88;3.83;;;;;;;;;;5093010;28;20056;-63
2021/12/26 14:24:07;;;;;;;7.65;4.18;;;;;;;;;;5092964;28;20110;-63
2021/12/26 14:26:39;;;;;;;6.22;3.60;;;;;;;;;;5092947;28;20047;-63
2021/12/26 14:29:09;;;;;;;11.13;6.30;;;;;;;;;;5094229;28;20101;-63
2021/12/26 14:31:38;;;;;;;7.43;4.97;;;;;;;;;;5095515;28;20047;-63
2021/12/26 14:34:12;;;;;;;9.98;5.88;;;;;;;;;;5096687;28;20122;-63
2021/12/26 14:36:47;;;;;;;7.53;4.35;;;;;;;;;;5096744;28;20044;-63
2021/12/26 14:39:13;;;;;;;6.90;4.65;;;;;;;;;;5096202;28;20103;-63
2021/12/26 14:41:39;;;;;;;7.85;4.20;;;;;;;;;;5096587;28;20056;-63
2021/12/26 14:44:17;;;;;;;7.25;4.75;;;;;;;;;;5096212;28;20083;-64
2021/12/26 14:46:43;;;;;;;6.63;4.13;;;;;;;;;;5096229;28;20048;-63
2021/12/26 14:49:11;;;;;;;6.80;4.53;;;;;;;;;;5096375;28;20055;-63
2021/12/26 14:51:37;;;;;;;9.80;4.10;;;;;;;;;;5095562;28;20056;-63
2021/12/26 14:54:04;;;;;;;7.65;4.05;;;;;;;;;;5096376;28;20048;-64